KECS/ECS METAR and TAF weather

Enter ICAO airport designator
Station Type Date Time Source
KECS METAR 2020/01/18 21:35 UTC NOAA

KECS 182135Z AUTO 32011KT 10SM CLR 00/M13 A3024 RMK AO2


Station Type Date Time Source
KECS Decoded METAR 2020/01/18 21:35 UTC NOAA

Station name not available
Jan 18, 2020 - 04:35 PM EST / 2020.01.18 2135 UTC
Wind: from the NW (320 degrees) at 13 MPH (11 KT):0
Visibility: 10 mile(s):0
Sky conditions: clear
Temperature: 32 F (0 C)
Windchill: 23 F (-5 C):1
Dew Point: 8 F (-13 C)
Relative Humidity: 36%
Pressure (altimeter): 30.24 in. Hg (1024 hPa)
ob: KECS 182135Z AUTO 32011KT 10SM CLR 00/M13 A3024 RMK AO2
cycle: 21

Station Type Date Time Source
KECS TAF UTC NOAA

Error!

Example: see airport list